Time;durP1;ratioP1;P1;durP2;ratioP2;P2;SDS_P1;SDS_P2;PMS_P1;PMS_P2;Temp;Humidity;BMP_temperature;BMP_pressure;BME280_temperature;BME280_humidity;BME280_pressure;Samples;Min_cycle;Max_cycle;Signal;HPM_P1;HPM_P2
2024/04/19 00:00:00;;;;;;;4.20;3.83;;;;;;;10.41;50.49;97669.25;5412922;26;20717;-69
2024/04/19 00:02:26;;;;;;;4.63;3.97;;;;;;;10.45;50.78;97670.63;5437774;26;20239;-71
2024/04/19 00:04:52;;;;;;;4.07;3.70;;;;;;;10.43;50.85;97664.69;5444847;26;20235;-71
2024/04/19 00:07:17;;;;;;;4.27;3.73;;;;;;;10.32;50.68;97656.94;5440531;26;20521;-70
2024/04/19 00:09:43;;;;;;;4.17;3.77;;;;;;;10.30;50.75;97647.44;5440595;26;20968;-71
2024/04/19 00:12:09;;;;;;;4.20;3.80;;;;;;;10.27;50.88;97639.84;5416911;26;20239;-72
2024/04/19 00:14:34;;;;;;;5.00;4.30;;;;;;;10.34;50.51;97649.75;5446621;26;21122;-71
2024/04/19 00:17:00;;;;;;;5.10;3.90;;;;;;;10.35;50.89;97641.78;5446589;26;20286;-72
2024/04/19 00:19:25;;;;;;;4.63;4.07;;;;;;;10.25;51.19;97639.16;5448101;26;20285;-71
2024/04/19 00:21:51;;;;;;;6.60;3.80;;;;;;;10.30;51.17;97636.13;5448276;26;20290;-72
2024/04/19 00:24:16;;;;;;;4.37;3.67;;;;;;;10.25;51.25;97636.53;5447345;26;20227;-71
2024/04/19 00:26:42;;;;;;;4.53;4.10;;;;;;;10.19;51.75;97644.97;5415612;26;20247;-70
2024/04/19 00:29:07;;;;;;;5.70;5.07;;;;;;;10.27;51.66;97634.59;5417402;26;20244;-69
2024/04/19 00:31:32;;;;;;;4.77;4.37;;;;;;;10.27;51.64;97639.84;5441056;26;20286;-72
2024/04/19 00:33:58;;;;;;;6.80;4.40;;;;;;;10.25;51.70;97633.91;5448840;26;20290;-70
2024/04/19 00:36:23;;;;;;;4.00;3.47;;;;;;;10.21;51.39;97629.91;5446850;26;20232;-72
2024/04/19 00:38:52;;;;;;;5.13;4.63;;;;;;;10.29;50.78;97626.59;5431212;26;20332;-70
2024/04/19 00:41:18;;;;;;;4.63;4.13;;;;;;;10.26;51.31;97626.91;5446295;26;20332;-72
2024/04/19 00:43:44;;;;;;;5.00;4.30;;;;;;;10.23;50.80;97617.50;5440965;26;20524;-69
2024/04/19 00:46:09;;;;;;;6.93;4.83;;;;;;;10.21;51.13;97618.63;5447869;26;20227;-70
2024/04/19 00:48:35;;;;;;;6.30;4.30;;;;;;;10.23;51.53;97622.75;5438426;26;20352;-70
2024/04/19 00:51:01;;;;;;;6.37;4.47;;;;;;;10.28;51.64;97617.91;5447506;26;20385;-71
2024/04/19 00:53:30;;;;;;;4.90;4.40;;;;;;;10.21;51.82;97618.63;5444941;26;20227;-72
2024/04/19 00:55:58;;;;;;;9.33;4.40;;;;;;;10.24;52.01;97619.16;5448435;26;20457;-72
2024/04/19 00:58:25;;;;;;;5.40;4.20;;;;;;;10.22;51.90;97623.72;5446555;26;20441;-74
2024/04/19 01:00:51;;;;;;;5.50;4.87;;;;;;;10.28;51.44;97617.09;5445568;26;20505;-69
2024/04/19 01:03:17;;;;;;;5.03;4.20;;;;;;;10.34;51.06;97624.41;5443607;26;20498;-71
2024/04/19 01:05:42;;;;;;;5.40;4.57;;;;;;;10.20;51.35;97617.81;5443464;26;20858;-72
2024/04/19 01:08:07;;;;;;;4.90;4.40;;;;;;;10.15;51.56;97625.25;5433871;26;20295;-72
2024/04/19 01:10:34;;;;;;;7.60;4.40;;;;;;;10.24;51.61;97624.41;5446244;26;20239;-69
2024/04/19 01:13:00;;;;;;;5.73;5.13;;;;;;;10.22;51.36;97621.09;5442632;26;20232;-71
2024/04/19 01:15:25;;;;;;;5.67;4.70;;;;;;;10.24;52.04;97616.53;5415631;26;20554;-71
2024/04/19 01:17:51;;;;;;;8.53;4.87;;;;;;;10.24;51.82;97613.94;5452890;26;20460;-70
2024/04/19 01:20:16;;;;;;;7.50;4.80;;;;;;;10.19;51.22;97616.16;5434910;26;20286;-71
2024/04/19 01:22:43;;;;;;;4.87;4.40;;;;;;;10.17;51.29;97614.63;5420738;26;20338;-69
2024/04/19 01:25:39;;;;;;;5.07;4.40;;;;;;;10.19;51.18;97613.53;5424409;26;20284;-69
2024/04/19 01:28:06;;;;;;;6.10;4.97;;;;;;;10.18;51.46;97609.25;5423500;26;20509;-68
2024/04/19 01:30:31;;;;;;;6.80;4.80;;;;;;;10.09;50.98;97610.06;5438742;26;20449;-68
2024/04/19 01:32:57;;;;;;;5.30;4.33;;;;;;;10.09;51.69;97610.91;5447140;26;20517;-70
2024/04/19 01:35:22;;;;;;;5.83;4.40;;;;;;;10.06;51.73;97603.31;5447343;26;20286;-68
2024/04/19 01:37:49;;;;;;;5.20;4.70;;;;;;;10.04;51.79;97599.22;5443596;26;20231;-70
2024/04/19 01:40:15;;;;;;;4.80;4.30;;;;;;;10.08;52.04;97598.78;5445148;26;20577;-70
2024/04/19 01:42:40;;;;;;;6.40;4.30;;;;;;;10.13;51.57;97598.38;5446412;26;20247;-70
2024/04/19 01:45:06;;;;;;;5.20;4.70;;;;;;;10.15;51.26;97599.88;5447463;26;20285;-71
2024/04/19 01:47:31;;;;;;;5.93;4.80;;;;;;;10.12;51.77;97594.09;5445132;26;20231;-68
2024/04/19 01:49:57;;;;;;;5.30;4.80;;;;;;;10.12;51.62;97592.31;5436743;26;20250;-68
2024/04/19 01:52:22;;;;;;;6.07;4.73;;;;;;;10.07;51.80;97597.13;5439107;26;20816;-71
2024/04/19 01:54:47;;;;;;;5.27;4.77;;;;;;;10.08;51.94;97587.50;5444523;26;20877;-68
2024/04/19 01:57:13;;;;;;;6.10;5.10;;;;;;;10.09;51.67;97581.25;5444849;26;20282;-70
2024/04/19 01:59:38;;;;;;;6.30;4.90;;;;;;;10.05;51.77;97585.16;5445727;26;20728;-69
2024/04/19 02:02:04;;;;;;;6.43;5.40;;;;;;;10.02;51.86;97583.63;5434952;26;20246;-69
2024/04/19 02:04:32;;;;;;;6.13;5.17;;;;;;;10.00;51.51;97577.72;5446638;26;20310;-69
2024/04/19 02:06:58;;;;;;;6.07;5.40;;;;;;;10.01;51.44;97576.75;5442860;26;20282;-69
2024/04/19 02:09:23;;;;;;;5.47;4.97;;;;;;;9.99;51.49;97573.44;5439015;26;20524;-70
2024/04/19 02:11:48;;;;;;;7.83;5.43;;;;;;;9.92;51.85;97572.31;5446000;26;20239;-69
2024/04/19 02:14:14;;;;;;;6.60;5.60;;;;;;;9.90;51.92;97576.88;5446766;26;20223;-70
2024/04/19 02:16:39;;;;;;;6.03;5.43;;;;;;;9.95;51.86;97572.06;5430497;26;20228;-68
2024/04/19 02:19:05;;;;;;;6.13;5.50;;;;;;;9.99;51.53;97571.63;5444575;26;20278;-68
2024/04/19 02:21:30;;;;;;;7.10;5.70;;;;;;;9.98;51.85;97566.56;5432410;26;21031;-70
2024/04/19 02:23:56;;;;;;;8.50;6.37;;;;;;;10.05;51.52;97562.41;5442702;26;20234;-68
2024/04/19 02:26:21;;;;;;;7.30;6.20;;;;;;;10.05;51.27;97562.41;5432339;26;20269;-70
2024/04/19 02:31:31;;;;;;;9.03;6.97;;;;;;;10.00;50.96;97554.16;5438933;26;20239;-70
2024/04/19 02:33:56;;;;;;;6.80;6.00;;;;;;;10.02;51.04;97554.81;5445094;26;20517;-68
2024/04/19 02:36:22;;;;;;;6.97;6.17;;;;;;;9.95;51.53;97546.72;5428859;26;20274;-68
2024/04/19 02:38:47;;;;;;;7.13;5.83;;;;;;;9.99;51.65;97547.25;5443349;26;20239;-68
2024/04/19 02:41:13;;;;;;;9.00;6.20;;;;;;;9.98;51.31;97530.69;5444170;26;20239;-69
2024/04/19 02:43:38;;;;;;;9.30;6.40;;;;;;;9.98;51.36;97530.69;5445712;26;20239;-70
2024/04/19 02:46:05;;;;;;;9.07;6.63;;;;;;;10.06;51.42;97534.44;5446146;26;20231;-68
2024/04/19 02:48:31;;;;;;;10.23;6.40;;;;;;;9.99;51.06;97532.34;5430433;26;20341;-69
2024/04/19 02:50:56;;;;;;;9.63;6.30;;;;;;;10.01;51.36;97528.78;5443419;26;20464;-71
2024/04/19 02:53:22;;;;;;;15.10;6.10;;;;;;;10.07;50.90;97523.81;5445896;26;20513;-71
2024/04/19 02:55:48;;;;;;;8.80;6.27;;;;;;;10.11;51.28;97524.34;5446681;26;20585;-70
2024/04/19 02:58:14;;;;;;;7.10;6.40;;;;;;;10.12;51.23;97520.75;5443716;26;20302;-70
2024/04/19 03:00:39;;;;;;;8.57;6.60;;;;;;;10.11;51.05;97521.72;5445690;26;20506;-69
2024/04/19 03:03:05;;;;;;;9.03;6.67;;;;;;;10.02;50.97;97512.09;5440653;26;20232;-69
2024/04/19 03:05:30;;;;;;;7.93;6.60;;;;;;;10.00;51.33;97512.25;5446385;26;20270;-70
2024/04/19 03:07:56;;;;;;;7.93;7.00;;;;;;;9.97;51.47;97507.28;5434803;26;20231;-72
2024/04/19 03:10:21;;;;;;;9.10;6.30;;;;;;;9.96;51.31;97508.25;5443156;26;20807;-71
2024/04/19 03:12:47;;;;;;;8.37;6.80;;;;;;;9.93;51.05;97505.91;5444857;26;20243;-69
2024/04/19 03:15:12;;;;;;;9.13;7.10;;;;;;;9.78;51.22;97500.28;5438213;26;20228;-72
2024/04/19 03:17:37;;;;;;;12.03;6.53;;;;;;;9.88;51.66;97503.72;5443762;26;20232;-69
2024/04/19 03:20:03;;;;;;;9.70;6.53;;;;;;;9.90;51.44;97499.16;5443709;26;20369;-69
2024/04/19 03:22:29;;;;;;;11.10;7.40;;;;;;;9.88;51.92;97498.47;5445642;26;20601;-69
2024/04/19 03:24:54;;;;;;;12.20;7.43;;;;;;;9.66;52.10;97495.22;5444826;26;20231;-71
2024/04/19 03:27:19;;;;;;;8.13;6.53;;;;;;;9.73;51.90;97497.25;5445071;26;20593;-70
2024/04/19 03:29:49;;;;;;;11.30;7.30;;;;;;;9.81;51.62;97492.16;5444472;26;20240;-71
2024/04/19 03:32:14;;;;;;;6.87;6.17;;;;;;;9.89;51.32;97488.84;5437399;26;20240;-69
2024/04/19 03:34:43;;;;;;;9.30;7.00;;;;;;;9.70;52.07;97489.72;5412393;26;21056;-70
2024/04/19 03:37:09;;;;;;;10.57;6.50;;;;;;;9.75;52.28;97479.63;5443164;26;20948;-69
2024/04/19 03:39:34;;;;;;;10.10;7.20;;;;;;;9.71;52.15;97479.09;5438104;26;20536;-69
2024/04/19 03:42:02;;;;;;;8.43;7.50;;;;;;;9.67;52.35;97475.94;5439201;26;20246;-70
2024/04/19 03:47:11;;;;;;;12.40;6.90;;;;;;;9.69;52.40;97478.41;5436929;26;20465;-71
2024/04/19 03:49:37;;;;;;;9.27;7.37;;;;;;;9.68;52.29;97467.13;5428753;26;20500;-71
2024/04/19 03:52:02;;;;;;;7.53;6.83;;;;;;;9.49;52.60;97467.97;5446815;26;20834;-70
2024/04/19 03:54:28;;;;;;;8.87;7.40;;;;;;;9.55;52.66;97463.97;5448972;26;20231;-70
2024/04/19 03:56:53;;;;;;;8.10;6.53;;;;;;;9.57;52.68;97462.03;5449247;26;20227;-68
2024/04/19 03:59:19;;;;;;;10.00;7.33;;;;;;;9.57;52.48;97469.88;5449399;26;20328;-69
2024/04/19 04:01:48;;;;;;;9.37;7.10;;;;;;;9.52;52.50;97461.63;5447711;26;20247;-71
2024/04/19 04:04:13;;;;;;;8.23;6.87;;;;;;;9.37;52.59;97469.06;5434866;26;20673;-68
2024/04/19 04:06:39;;;;;;;8.90;7.30;;;;;;;9.42;52.82;97469.47;5451503;26;20453;-71
2024/04/19 04:09:04;;;;;;;9.90;7.20;;;;;;;9.45;52.71;97460.53;5447730;26;20740;-69
2024/04/19 04:11:30;;;;;;;8.73;7.13;;;;;;;9.63;52.73;97458.84;5422950;26;20871;-70
2024/04/19 04:13:55;;;;;;;9.60;8.00;;;;;;;9.60;52.81;97458.31;5447801;26;20286;-70
2024/04/19 04:16:21;;;;;;;9.83;7.70;;;;;;;9.65;52.32;97446.44;5378382;26;20356;-73
2024/04/19 04:18:46;;;;;;;9.13;7.50;;;;;;;9.58;52.45;97444.53;5446934;26;20251;-70
2024/04/19 04:21:12;;;;;;;10.50;7.90;;;;;;;9.59;52.66;97446.19;5424139;26;20236;-70
2024/04/19 04:23:37;;;;;;;9.47;8.00;;;;;;;9.66;52.51;97436.78;5439428;26;20256;-70
2024/04/19 04:26:03;;;;;;;9.07;7.50;;;;;;;9.43;52.59;97436.28;5441019;26;20258;-70
2024/04/19 04:28:28;;;;;;;14.43;8.50;;;;;;;9.48;53.10;97436.69;5435466;26;20312;-72
2024/04/19 04:30:54;;;;;;;9.87;7.50;;;;;;;9.15;53.25;97428.31;5446653;26;20235;-71
2024/04/19 04:33:19;;;;;;;10.27;7.37;;;;;;;9.43;52.86;97428.44;5447888;26;20270;-68
2024/04/19 04:35:45;;;;;;;10.63;7.60;;;;;;;9.21;53.10;97427.75;5430321;26;20304;-70
2024/04/19 04:38:10;;;;;;;10.60;7.87;;;;;;;9.32;53.02;97425.03;5445776;26;20235;-73
2024/04/19 04:40:36;;;;;;;8.80;7.13;;;;;;;9.51;52.70;97425.94;5444958;26;20643;-70
2024/04/19 04:43:03;;;;;;;11.57;7.97;;;;;;;9.42;52.32;97409.28;5446532;26;20239;-71
2024/04/19 04:45:29;;;;;;;8.70;7.40;;;;;;;9.42;52.28;97409.28;5440333;26;20464;-76
2024/04/19 04:47:55;;;;;;;13.83;7.77;;;;;;;9.43;52.47;97425.84;5432655;26;20839;-73
2024/04/19 04:50:22;;;;;;;11.57;7.70;;;;;;;9.34;52.68;97417.84;5446843;26;20461;-71
2024/04/19 04:52:47;;;;;;;9.83;7.60;;;;;;;9.52;52.15;97425.00;5447220;26;20227;-69
2024/04/19 04:55:14;;;;;;;10.10;8.23;;;;;;;9.63;52.14;97416.97;5439744;26;20864;-72
2024/04/19 04:57:40;;;;;;;9.87;7.40;;;;;;;9.63;51.91;97411.75;5434591;26;20740;-71
2024/04/19 05:00:06;;;;;;;11.60;8.10;;;;;;;9.70;52.13;97421.66;5445384;26;20590;-68
2024/04/19 05:02:36;;;;;;;12.57;8.20;;;;;;;9.69;52.27;97426.06;5437299;26;21012;-70
2024/04/19 05:05:02;;;;;;;9.77;7.30;;;;;;;9.65;52.25;97425.53;5444609;26;21211;-69
2024/04/19 05:07:28;;;;;;;8.80;7.67;;;;;;;9.58;52.48;97421.78;5436468;26;20458;-72
2024/04/19 05:09:55;;;;;;;11.10;8.30;;;;;;;9.79;52.17;97419.00;5436454;26;20342;-73
2024/04/19 05:12:21;;;;;;;9.23;7.90;;;;;;;9.80;52.10;97409.38;5446969;26;20548;-68
2024/04/19 05:14:46;;;;;;;15.80;7.97;;;;;;;9.62;52.14;97407.47;5415274;26;20560;-69
2024/04/19 05:17:11;;;;;;;10.00;8.37;;;;;;;9.65;52.43;97409.81;5428727;26;20248;-70
2024/04/19 05:19:37;;;;;;;16.27;8.33;;;;;;;9.50;52.33;97413.84;5435603;26;20798;-72
2024/04/19 05:22:02;;;;;;;13.47;8.30;;;;;;;9.43;53.00;97416.19;5440167;26;20343;-73
2024/04/19 05:24:28;;;;;;;10.87;7.53;;;;;;;9.39;52.95;97409.56;5447810;26;20291;-70
2024/04/19 05:26:56;;;;;;;9.33;7.40;;;;;;;9.39;52.84;97412.19;5444859;26;20233;-70
2024/04/19 05:29:22;;;;;;;11.53;8.00;;;;;;;9.49;52.82;97415.63;5440571;26;20281;-70
2024/04/19 05:31:47;;;;;;;11.13;8.20;;;;;;;9.40;53.22;97421.69;5444717;26;20469;-69
2024/04/19 05:34:13;;;;;;;9.80;8.00;;;;;;;9.47;53.06;97421.94;5415249;26;20572;-71
2024/04/19 05:36:38;;;;;;;11.20;8.27;;;;;;;9.59;52.82;97420.03;5449402;26;20239;-70
2024/04/19 05:39:04;;;;;;;11.10;8.23;;;;;;;9.66;52.47;97406.22;5428830;26;20228;-72
2024/04/19 05:41:29;;;;;;;10.57;8.57;;;;;;;9.70;52.88;97408.56;5443977;26;20624;-70
2024/04/19 05:43:55;;;;;;;10.63;7.73;;;;;;;9.76;52.58;97400.13;5409957;26;20251;-70
2024/04/19 05:46:20;;;;;;;8.87;7.70;;;;;;;9.80;52.57;97404.13;5445233;26;20311;-70
2024/04/19 05:48:46;;;;;;;11.30;7.60;;;;;;;9.88;52.62;97400.81;5444273;26;20274;-68
2024/04/19 05:51:11;;;;;;;13.73;7.93;;;;;;;9.79;52.59;97397.25;5439492;26;20287;-70
2024/04/19 05:53:37;;;;;;;11.37;8.00;;;;;;;9.83;52.19;97401.22;5446591;26;21056;-69
2024/04/19 05:56:02;;;;;;;8.90;7.43;;;;;;;9.88;52.12;97399.00;5429988;26;20310;-71
2024/04/19 05:58:28;;;;;;;10.53;7.97;;;;;;;10.05;52.10;97397.41;5438536;26;20625;-74
2024/04/19 06:00:53;;;;;;;10.03;7.57;;;;;;;10.09;51.70;97397.94;5436881;26;20274;-70
2024/04/19 06:03:19;;;;;;;7.30;5.97;;;;;;;10.18;51.67;97393.63;5446598;26;20347;-71
2024/04/19 06:05:44;;;;;;;10.53;6.80;;;;;;;10.15;51.24;97395.56;5445466;26;20231;-71
2024/04/19 06:08:11;;;;;;;10.40;7.70;;;;;;;10.20;51.36;97395.16;5439729;26;20986;-71
2024/04/19 06:10:36;;;;;;;13.27;7.20;;;;;;;9.87;51.97;97397.34;5435141;26;20291;-71
2024/04/19 06:13:02;;;;;;;10.93;7.17;;;;;;;9.93;51.75;97393.31;5446284;26;21122;-69
2024/04/19 06:15:27;;;;;;;9.00;6.40;;;;;;;10.17;51.37;97387.59;5441371;26;20233;-71
2024/04/19 06:17:53;;;;;;;7.70;6.80;;;;;;;10.21;51.97;97382.88;5431459;26;20295;-71
2024/04/19 06:20:18;;;;;;;8.80;6.60;;;;;;;10.20;51.82;97384.69;5434358;26;20231;-68
2024/04/19 06:22:44;;;;;;;8.93;6.43;;;;;;;10.21;52.09;97375.81;5419898;26;20775;-70
2024/04/19 06:25:09;;;;;;;7.67;6.70;;;;;;;10.35;51.44;97368.47;5435448;26;20588;-71
2024/04/19 06:27:34;;;;;;;8.50;5.23;;;;;;;10.29;51.29;97370.72;5437023;26;20704;-69
2024/04/19 06:30:00;;;;;;;11.43;5.70;;;;;;;10.19;51.31;97366.47;5438458;26;20344;-71
2024/04/19 06:32:25;;;;;;;11.53;6.00;;;;;;;10.15;51.15;97364.16;5433542;26;20303;-72
2024/04/19 06:34:51;;;;;;;8.53;5.73;;;;;;;9.74;52.39;97355.81;5425631;26;20232;-71
2024/04/19 06:37:16;;;;;;;6.50;5.60;;;;;;;10.04;52.12;97356.47;5423193;26;20347;-71
2024/04/19 06:39:42;;;;;;;10.40;5.80;;;;;;;10.24;51.74;97356.41;5428813;26;20749;-72
2024/04/19 06:42:07;;;;;;;6.37;5.03;;;;;;;10.35;51.05;97347.50;5415146;26;20283;-69
2024/04/19 06:44:33;;;;;;;7.77;5.47;;;;;;;10.36;51.22;97351.75;5433867;26;20716;-69
2024/04/19 06:46:58;;;;;;;7.10;5.20;;;;;;;10.22;51.05;97340.00;5435276;26;20258;-70
2024/04/19 06:49:24;;;;;;;7.60;5.70;;;;;;;10.47;50.62;97325.38;5437988;26;20343;-69
2024/04/19 06:51:49;;;;;;;6.43;5.20;;;;;;;10.58;50.36;97340.91;5424255;26;20245;-69
2024/04/19 06:54:15;;;;;;;6.30;5.17;;;;;;;10.65;50.12;97327.19;5442400;26;20235;-70
2024/04/19 06:56:40;;;;;;;7.33;5.40;;;;;;;10.72;50.23;97323.84;5427705;26;20308;-70
2024/04/19 06:59:07;;;;;;;7.40;4.90;;;;;;;10.65;49.74;97327.19;5433956;26;20313;-70
2024/04/19 07:01:33;;;;;;;7.23;5.00;;;;;;;10.81;49.54;97322.13;5427702;26;20298;-70
2024/04/19 07:03:58;;;;;;;8.07;5.23;;;;;;;10.69;49.62;97318.88;5425970;26;20449;-70
2024/04/19 07:06:24;;;;;;;7.20;5.33;;;;;;;10.96;49.83;97311.09;5431314;26;20884;-69
2024/04/19 07:08:49;;;;;;;6.93;4.73;;;;;;;10.85;49.42;97318.19;5423185;26;20279;-70
2024/04/19 07:11:15;;;;;;;7.70;5.20;;;;;;;10.81;49.88;97316.88;5418292;26;20247;-74
2024/04/19 07:13:46;;;;;;;8.47;5.00;;;;;;;11.03;49.50;97310.31;5438909;26;20310;-71
2024/04/19 07:16:11;;;;;;;7.47;5.17;;;;;;;10.93;50.38;97309.56;5444014;26;20239;-69
2024/04/19 07:18:37;;;;;;;8.80;5.63;;;;;;;10.82;51.10;97307.19;5442661;26;20559;-69
2024/04/19 07:21:02;;;;;;;7.07;5.30;;;;;;;10.73;51.70;97303.66;5432233;26;20236;-70
2024/04/19 07:23:28;;;;;;;6.47;5.80;;;;;;;10.71;51.55;97305.66;5431849;26;20236;-72
2024/04/19 07:25:53;;;;;;;6.47;5.07;;;;;;;10.79;51.82;97308.31;5438100;26;20232;-70
2024/04/19 07:28:19;;;;;;;11.43;6.27;;;;;;;10.65;52.04;97303.59;5438980;26;20411;-68
2024/04/19 07:30:44;;;;;;;6.43;4.47;;;;;;;10.78;52.15;97301.44;5445153;26;20227;-70
2024/04/19 07:33:10;;;;;;;5.77;5.10;;;;;;;10.74;52.43;97305.31;5384501;26;20250;-69
2024/04/19 07:35:36;;;;;;;7.63;5.70;;;;;;;10.47;53.05;97299.19;5406955;26;20270;-70
2024/04/19 07:38:01;;;;;;;7.83;5.67;;;;;;;10.58;53.09;97293.75;5432399;26;20567;-69
2024/04/19 07:40:27;;;;;;;7.23;6.00;;;;;;;10.76;52.51;97298.13;5442209;26;20507;-70
2024/04/19 07:42:52;;;;;;;7.97;5.47;;;;;;;10.36;53.41;97288.88;5432413;26;20244;-69
2024/04/19 07:45:23;;;;;;;6.70;5.70;;;;;;;10.44;53.84;97286.41;5430830;26;20232;-69
2024/04/19 07:47:52;;;;;;;8.27;5.53;;;;;;;10.41;53.31;97281.44;5442353;26;20239;-70
2024/04/19 07:50:17;;;;;;;8.67;6.00;;;;;;;10.34;54.19;97282.97;5429689;26;20462;-70
2024/04/19 07:52:44;;;;;;;10.47;6.40;;;;;;;10.48;54.08;97274.63;5446319;26;20541;-70
2024/04/19 07:55:09;;;;;;;8.40;5.77;;;;;;;10.16;53.94;97286.41;5439933;26;20822;-69
2024/04/19 07:57:34;;;;;;;10.83;5.20;;;;;;;10.36;54.18;97276.63;5454215;26;20556;-70
2024/04/19 08:00:01;;;;;;;6.80;5.50;;;;;;;10.45;54.36;97267.09;5453739;26;20722;-70
2024/04/19 08:02:27;;;;;;;5.50;4.23;;;;;;;10.17;54.17;97261.03;5474721;26;20344;-71
2024/04/19 08:04:52;;;;;;;9.20;5.33;;;;;;;10.10;54.90;97256.41;5425978;26;21322;-71
2024/04/19 08:07:18;;;;;;;6.20;5.60;;;;;;;10.38;54.76;97263.41;5428274;26;20239;-71
2024/04/19 08:09:43;;;;;;;7.93;5.80;;;;;;;9.93;55.06;97255.41;5436016;26;20279;-68
2024/04/19 08:12:08;;;;;;;5.60;5.03;;;;;;;10.13;54.28;97261.34;5430192;26;20328;-70
2024/04/19 08:14:34;;;;;;;7.70;5.50;;;;;;;10.16;54.61;97241.88;5424356;26;21078;-70
2024/04/19 08:16:59;;;;;;;6.70;5.23;;;;;;;10.20;54.94;97242.41;5445769;26;20347;-71
2024/04/19 08:19:25;;;;;;;7.57;5.57;;;;;;;10.36;54.68;97239.13;5445556;26;20278;-70
2024/04/19 08:21:50;;;;;;;8.07;5.73;;;;;;;9.96;55.11;97234.16;5444315;26;20728;-72
2024/04/19 08:24:16;;;;;;;8.63;6.13;;;;;;;10.11;55.42;97224.00;5437907;26;20231;-70
2024/04/19 08:26:41;;;;;;;8.80;5.53;;;;;;;10.11;55.17;97226.63;5442617;26;20278;-70
2024/04/19 08:29:07;;;;;;;7.83;5.10;;;;;;;9.95;54.85;97232.53;5434843;26;20311;-71
2024/04/19 08:31:34;;;;;;;6.17;5.57;;;;;;;10.04;55.32;97237.84;5440633;26;20252;-69
2024/04/19 08:33:59;;;;;;;6.47;5.53;;;;;;;9.98;55.58;97237.44;5432758;26;20299;-72
2024/04/19 08:36:25;;;;;;;6.70;6.00;;;;;;;10.20;55.10;97229.31;5434106;26;20510;-70
2024/04/19 08:38:51;;;;;;;5.03;4.37;;;;;;;10.04;55.55;97228.19;5419288;26;20431;-69
2024/04/19 08:41:18;;;;;;;4.97;4.20;;;;;;;9.77;55.30;97218.56;5422938;26;20236;-69
2024/04/19 08:43:45;;;;;;;5.07;4.57;;;;;;;9.83;55.78;97225.81;5405600;26;20235;-69
2024/04/19 08:46:11;;;;;;;5.10;4.60;;;;;;;9.93;55.66;97225.78;5436500;26;20460;-68
2024/04/19 08:48:38;;;;;;;4.93;4.43;;;;;;;9.97;55.65;97214.84;5431478;26;21126;-71
2024/04/19 08:51:03;;;;;;;4.60;4.20;;;;;;;9.86;56.19;97217.69;5443173;26;21092;-69
2024/04/19 08:53:29;;;;;;;4.00;3.70;;;;;;;9.83;55.31;97210.13;5437085;26;20458;-70
2024/04/19 08:55:55;;;;;;;5.07;4.00;;;;;;;9.81;56.16;97209.47;5446301;26;20239;-71
2024/04/19 08:58:21;;;;;;;6.13;4.60;;;;;;;9.63;57.14;97197.16;5437378;26;20296;-69
2024/04/19 09:00:47;;;;;;;5.63;4.77;;;;;;;9.58;56.93;97204.63;5433848;26;20309;-69
2024/04/19 09:03:12;;;;;;;4.50;4.10;;;;;;;9.77;56.57;97181.94;5441174;26;20461;-70
2024/04/19 09:05:39;;;;;;;4.93;4.50;;;;;;;9.94;57.16;97186.38;5435413;26;20318;-69
2024/04/19 09:08:05;;;;;;;5.27;3.80;;;;;;;9.80;56.27;97171.19;5433567;26;20235;-69
2024/04/19 09:10:31;;;;;;;4.77;4.27;;;;;;;9.84;56.70;97181.19;5428786;26;21026;-72
2024/04/19 09:12:57;;;;;;;4.37;3.97;;;;;;;9.48;56.80;97169.84;5415415;26;20509;-71
2024/04/19 09:15:26;;;;;;;5.53;4.00;;;;;;;9.52;57.41;97164.16;5444275;26;20524;-71
2024/04/19 09:17:53;;;;;;;4.30;3.90;;;;;;;9.00;58.81;97154.22;5444779;26;20598;-71
2024/04/19 09:20:18;;;;;;;5.63;4.50;;;;;;;9.40;57.89;97154.06;5445827;26;20473;-70
2024/04/19 09:22:44;;;;;;;4.73;4.33;;;;;;;9.42;58.11;97136.44;5446962;26;20457;-70
2024/04/19 09:25:12;;;;;;;5.23;4.60;;;;;;;9.49;57.62;97142.72;5447339;26;20239;-70
2024/04/19 09:27:39;;;;;;;4.40;4.00;;;;;;;9.36;58.10;97146.50;5445807;26;20577;-71
2024/04/19 09:30:06;;;;;;;5.03;4.50;;;;;;;9.26;58.14;97137.88;5437301;26;20457;-69
2024/04/19 09:32:33;;;;;;;6.80;4.80;;;;;;;9.09;58.93;97130.78;5446418;26;20509;-69
2024/04/19 09:34:58;;;;;;;4.20;3.80;;;;;;;9.27;58.78;97133.47;5475315;26;20525;-72
2024/04/19 09:37:26;;;;;;;4.90;4.40;;;;;;;9.23;58.48;97117.25;5441975;26;20464;-70
2024/04/19 09:39:51;;;;;;;4.53;4.13;;;;;;;9.35;58.40;97099.56;5433676;26;20281;-70
2024/04/19 09:42:17;;;;;;;4.13;3.73;;;;;;;9.14;58.89;97103.25;5424637;26;20446;-70
2024/04/19 09:44:46;;;;;;;4.57;4.10;;;;;;;9.30;58.66;97100.00;5440405;26;20266;-71
2024/04/19 09:47:12;;;;;;;5.60;4.40;;;;;;;9.32;58.24;97090.25;5445165;26;20235;-68
2024/04/19 09:49:44;;;;;;;4.60;4.20;;;;;;;9.31;59.02;97091.19;5437268;26;20561;-69
2024/04/19 09:52:19;;;;;;;5.10;4.60;;;;;;;8.92;59.16;97096.63;5426001;26;20507;-70
2024/04/19 09:54:46;;;;;;;5.37;4.80;;;;;;;8.90;59.97;97085.50;5438380;26;20539;-69
2024/04/19 09:57:12;;;;;;;5.73;4.70;;;;;;;8.95;59.40;97078.03;5432650;26;20449;-69
2024/04/19 09:59:38;;;;;;;6.17;4.57;;;;;;;9.06;59.62;97075.25;5436865;26;20817;-69
2024/04/19 10:02:04;;;;;;;5.17;4.63;;;;;;;9.13;59.75;97066.78;5431938;26;20488;-70
2024/04/19 10:04:32;;;;;;;8.40;4.40;;;;;;;9.19;59.72;97061.81;5446040;26;20231;-70
2024/04/19 10:06:58;;;;;;;6.50;5.30;;;;;;;9.37;59.07;97056.59;5444023;26;21239;-70
2024/04/19 10:09:27;;;;;;;5.80;4.63;;;;;;;8.87;59.47;97047.41;5445524;26;20961;-69
2024/04/19 10:11:53;;;;;;;6.67;4.70;;;;;;;8.94;59.56;97055.50;5428812;26;20577;-70
2024/04/19 10:14:20;;;;;;;5.20;4.70;;;;;;;8.91;59.03;97035.69;5442179;26;20578;-69
2024/04/19 10:16:47;;;;;;;7.23;5.13;;;;;;;8.95;59.27;97041.44;5442797;26;20461;-70
2024/04/19 10:19:13;;;;;;;5.70;4.70;;;;;;;9.13;59.03;97017.13;5445568;26;20515;-70
2024/04/19 10:21:41;;;;;;;6.00;5.40;;;;;;;8.80;60.32;97032.44;5443708;26;20461;-71
2024/04/19 10:24:16;;;;;;;6.37;5.23;;;;;;;8.88;60.42;97024.69;5439517;26;20454;-72
2024/04/19 10:26:44;;;;;;;5.40;4.90;;;;;;;9.10;60.13;97022.63;5441226;26;20931;-69
2024/04/19 10:29:09;;;;;;;7.00;4.77;;;;;;;9.12;60.12;97023.31;5445010;26;21008;-71
2024/04/19 10:31:34;;;;;;;6.20;5.60;;;;;;;9.13;60.34;97009.28;5439448;26;20505;-71
2024/04/19 10:34:00;;;;;;;5.90;5.30;;;;;;;9.03;60.31;97012.78;5424775;26;20324;-69
2024/04/19 10:36:30;;;;;;;5.50;5.00;;;;;;;9.17;60.39;97008.03;5436355;26;20243;-69
2024/04/19 10:38:59;;;;;;;6.97;6.23;;;;;;;9.27;60.02;96987.84;5429422;26;20303;-69
2024/04/19 10:41:25;;;;;;;6.17;5.57;;;;;;;9.27;59.74;96987.84;5443543;26;20515;-70
2024/04/19 10:43:52;;;;;;;7.60;5.90;;;;;;;9.32;60.13;96985.63;5443458;26;20548;-70
2024/04/19 10:46:18;;;;;;;5.53;4.93;;;;;;;9.25;60.17;96987.16;5434303;26;20241;-72
2024/04/19 10:48:45;;;;;;;5.83;5.33;;;;;;;9.24;60.36;96976.88;5430617;26;20517;-71
2024/04/19 10:51:13;;;;;;;7.43;6.13;;;;;;;9.42;60.45;96967.22;5440131;26;20528;-70
2024/04/19 10:53:39;;;;;;;6.70;5.50;;;;;;;9.46;60.18;96978.19;5428406;26;20510;-70
2024/04/19 10:56:05;;;;;;;5.47;4.97;;;;;;;9.57;60.11;96972.75;5438407;26;20449;-70
2024/04/19 10:58:30;;;;;;;4.77;4.33;;;;;;;9.52;60.29;96972.38;5429072;26;20458;-71
2024/04/19 11:00:56;;;;;;;6.03;5.17;;;;;;;9.49;60.14;96964.81;5433892;26;20555;-72
2024/04/19 11:03:22;;;;;;;5.03;4.53;;;;;;;9.27;59.66;96961.69;5434547;26;20236;-70
2024/04/19 11:05:48;;;;;;;7.73;5.00;;;;;;;9.68;59.60;96943.72;5424286;26;20363;-70
2024/04/19 11:08:14;;;;;;;6.17;4.67;;;;;;;9.52;59.99;96948.81;5437396;26;20544;-69
2024/04/19 11:10:40;;;;;;;5.27;4.23;;;;;;;9.51;60.23;96966.28;5420706;26;20288;-69
2024/04/19 11:13:06;;;;;;;4.83;4.33;;;;;;;9.33;60.63;96947.19;5443229;26;20465;-70
2024/04/19 11:15:31;;;;;;;4.40;4.00;;;;;;;9.52;60.22;96944.41;5436438;26;21097;-69
2024/04/19 11:17:57;;;;;;;4.60;4.10;;;;;;;9.63;59.93;96930.25;5419709;26;20236;-70
2024/04/19 11:20:22;;;;;;;5.33;3.77;;;;;;;9.64;60.33;96926.66;5443656;26;20306;-71
2024/04/19 11:22:48;;;;;;;4.13;3.57;;;;;;;9.34;60.34;96952.25;5439063;26;20817;-69
2024/04/19 11:25:13;;;;;;;3.80;3.50;;;;;;;9.50;60.65;96940.31;5434736;26;20307;-71
2024/04/19 11:27:39;;;;;;;3.83;3.43;;;;;;;9.41;60.37;96930.75;5423845;26;20233;-70
2024/04/19 11:30:05;;;;;;;3.97;3.57;;;;;;;9.49;60.37;96922.97;5434907;26;20339;-71
2024/04/19 11:32:31;;;;;;;3.70;3.40;;;;;;;9.51;60.33;96910.56;5444074;26;20243;-69
2024/04/19 11:34:56;;;;;;;3.90;3.60;;;;;;;9.38;60.24;96927.47;5431657;26;21282;-70